sensor_id;sensor_type;location;lat;lon;timestamp;P1;durP1;ratioP1;P2;durP2;ratioP2
20639;SDS011;10479;53.524;9.846;2024-01-16T00:00:46;14.27;;;5.18;;
20639;SDS011;10479;53.524;9.846;2024-01-16T00:03:11;13.50;;;5.07;;
20639;SDS011;10479;53.524;9.846;2024-01-16T00:05:37;13.70;;;6.10;;
20639;SDS011;10479;53.524;9.846;2024-01-16T00:08:02;12.93;;;5.22;;
20639;SDS011;10479;53.524;9.846;2024-01-16T00:10:28;12.88;;;5.70;;
20639;SDS011;10479;53.524;9.846;2024-01-16T00:12:53;15.15;;;5.53;;
20639;SDS011;10479;53.524;9.846;2024-01-16T00:15:19;19.27;;;7.28;;
20639;SDS011;10479;53.524;9.846;2024-01-16T00:17:44;22.67;;;8.90;;
20639;SDS011;10479;53.524;9.846;2024-01-16T00:20:10;22.73;;;9.43;;
20639;SDS011;10479;53.524;9.846;2024-01-16T00:22:36;22.90;;;8.63;;
20639;SDS011;10479;53.524;9.846;2024-01-16T00:25:01;20.67;;;8.70;;
20639;SDS011;10479;53.524;9.846;2024-01-16T00:27:27;21.35;;;8.45;;
20639;SDS011;10479;53.524;9.846;2024-01-16T00:29:52;20.00;;;9.13;;
20639;SDS011;10479;53.524;9.846;2024-01-16T00:32:17;21.30;;;9.00;;
20639;SDS011;10479;53.524;9.846;2024-01-16T00:34:43;16.50;;;8.25;;
20639;SDS011;10479;53.524;9.846;2024-01-16T00:37:08;20.00;;;8.38;;
20639;SDS011;10479;53.524;9.846;2024-01-16T00:39:34;20.95;;;7.75;;
20639;SDS011;10479;53.524;9.846;2024-01-16T00:41:59;19.95;;;8.63;;
20639;SDS011;10479;53.524;9.846;2024-01-16T00:44:25;16.20;;;7.40;;
20639;SDS011;10479;53.524;9.846;2024-01-16T00:46:50;20.90;;;7.53;;
20639;SDS011;10479;53.524;9.846;2024-01-16T00:49:16;18.50;;;7.68;;
20639;SDS011;10479;53.524;9.846;2024-01-16T00:51:41;22.42;;;8.05;;
20639;SDS011;10479;53.524;9.846;2024-01-16T00:54:06;19.63;;;7.13;;
20639;SDS011;10479;53.524;9.846;2024-01-16T00:56:33;18.98;;;8.20;;
20639;SDS011;10479;53.524;9.846;2024-01-16T00:59:00;20.73;;;8.15;;
20639;SDS011;10479;53.524;9.846;2024-01-16T01:01:25;18.98;;;7.22;;
20639;SDS011;10479;53.524;9.846;2024-01-16T01:03:51;17.35;;;7.28;;
20639;SDS011;10479;53.524;9.846;2024-01-16T01:06:17;16.48;;;7.18;;
20639;SDS011;10479;53.524;9.846;2024-01-16T01:08:42;23.25;;;7.50;;
20639;SDS011;10479;53.524;9.846;2024-01-16T01:11:08;17.08;;;8.63;;
20639;SDS011;10479;53.524;9.846;2024-01-16T01:13:33;14.80;;;6.82;;
20639;SDS011;10479;53.524;9.846;2024-01-16T01:15:59;15.43;;;7.40;;
20639;SDS011;10479;53.524;9.846;2024-01-16T01:18:25;18.83;;;7.15;;
20639;SDS011;10479;53.524;9.846;2024-01-16T01:20:51;12.55;;;6.20;;
20639;SDS011;10479;53.524;9.846;2024-01-16T01:23:16;14.20;;;6.28;;
20639;SDS011;10479;53.524;9.846;2024-01-16T01:25:42;15.73;;;6.85;;
20639;SDS011;10479;53.524;9.846;2024-01-16T01:28:08;22.75;;;8.30;;
20639;SDS011;10479;53.524;9.846;2024-01-16T01:30:33;18.23;;;8.48;;
20639;SDS011;10479;53.524;9.846;2024-01-16T01:32:59;22.35;;;8.75;;
20639;SDS011;10479;53.524;9.846;2024-01-16T01:35:24;19.90;;;7.97;;
20639;SDS011;10479;53.524;9.846;2024-01-16T01:37:50;22.20;;;8.07;;
20639;SDS011;10479;53.524;9.846;2024-01-16T01:40:15;18.40;;;8.43;;
20639;SDS011;10479;53.524;9.846;2024-01-16T01:42:41;19.42;;;8.75;;
20639;SDS011;10479;53.524;9.846;2024-01-16T01:45:10;17.17;;;8.57;;
20639;SDS011;10479;53.524;9.846;2024-01-16T01:47:36;21.30;;;9.32;;
20639;SDS011;10479;53.524;9.846;2024-01-16T01:50:06;20.55;;;9.50;;
20639;SDS011;10479;53.524;9.846;2024-01-16T01:52:33;18.52;;;9.13;;
20639;SDS011;10479;53.524;9.846;2024-01-16T01:54:58;21.50;;;9.50;;
20639;SDS011;10479;53.524;9.846;2024-01-16T01:57:24;18.73;;;9.25;;
20639;SDS011;10479;53.524;9.846;2024-01-16T01:59:50;19.15;;;8.82;;
20639;SDS011;10479;53.524;9.846;2024-01-16T02:02:15;22.58;;;9.52;;
20639;SDS011;10479;53.524;9.846;2024-01-16T02:04:41;22.52;;;9.52;;
20639;SDS011;10479;53.524;9.846;2024-01-16T02:07:09;28.23;;;10.48;;
20639;SDS011;10479;53.524;9.846;2024-01-16T02:09:35;23.55;;;10.00;;
20639;SDS011;10479;53.524;9.846;2024-01-16T02:12:00;26.08;;;11.18;;
20639;SDS011;10479;53.524;9.846;2024-01-16T02:14:26;34.97;;;12.27;;
20639;SDS011;10479;53.524;9.846;2024-01-16T02:16:51;27.02;;;11.52;;
20639;SDS011;10479;53.524;9.846;2024-01-16T02:19:17;31.02;;;11.15;;
20639;SDS011;10479;53.524;9.846;2024-01-16T02:21:46;27.52;;;11.15;;
20639;SDS011;10479;53.524;9.846;2024-01-16T02:24:15;25.88;;;11.32;;
20639;SDS011;10479;53.524;9.846;2024-01-16T02:26:41;27.85;;;10.55;;
20639;SDS011;10479;53.524;9.846;2024-01-16T02:29:07;25.80;;;10.90;;
20639;SDS011;10479;53.524;9.846;2024-01-16T02:31:33;27.63;;;11.07;;
20639;SDS011;10479;53.524;9.846;2024-01-16T02:33:59;28.70;;;10.88;;
20639;SDS011;10479;53.524;9.846;2024-01-16T02:36:25;30.95;;;11.35;;
20639;SDS011;10479;53.524;9.846;2024-01-16T02:38:52;25.90;;;11.40;;
20639;SDS011;10479;53.524;9.846;2024-01-16T02:41:18;27.02;;;12.60;;
20639;SDS011;10479;53.524;9.846;2024-01-16T02:43:43;29.25;;;11.98;;
20639;SDS011;10479;53.524;9.846;2024-01-16T02:46:09;30.95;;;12.55;;
20639;SDS011;10479;53.524;9.846;2024-01-16T02:48:34;28.10;;;11.95;;
20639;SDS011;10479;53.524;9.846;2024-01-16T02:51:03;33.50;;;12.18;;
20639;SDS011;10479;53.524;9.846;2024-01-16T02:53:29;28.77;;;11.82;;
20639;SDS011;10479;53.524;9.846;2024-01-16T02:55:55;31.52;;;12.60;;
20639;SDS011;10479;53.524;9.846;2024-01-16T02:58:23;25.77;;;10.70;;
20639;SDS011;10479;53.524;9.846;2024-01-16T03:00:49;31.35;;;12.57;;
20639;SDS011;10479;53.524;9.846;2024-01-16T03:03:15;25.92;;;10.48;;
20639;SDS011;10479;53.524;9.846;2024-01-16T03:05:40;28.10;;;11.07;;
20639;SDS011;10479;53.524;9.846;2024-01-16T03:08:06;26.13;;;10.73;;
20639;SDS011;10479;53.524;9.846;2024-01-16T03:10:32;29.70;;;11.82;;
20639;SDS011;10479;53.524;9.846;2024-01-16T03:12:57;27.00;;;11.32;;
20639;SDS011;10479;53.524;9.846;2024-01-16T03:15:23;29.17;;;11.45;;
20639;SDS011;10479;53.524;9.846;2024-01-16T03:17:48;29.70;;;11.38;;
20639;SDS011;10479;53.524;9.846;2024-01-16T03:20:14;36.03;;;12.70;;
20639;SDS011;10479;53.524;9.846;2024-01-16T03:22:40;30.02;;;11.23;;
20639;SDS011;10479;53.524;9.846;2024-01-16T03:25:07;29.35;;;12.48;;
20639;SDS011;10479;53.524;9.846;2024-01-16T03:27:33;28.98;;;11.68;;
20639;SDS011;10479;53.524;9.846;2024-01-16T03:29:58;35.10;;;13.52;;
20639;SDS011;10479;53.524;9.846;2024-01-16T03:32:24;31.42;;;12.63;;
20639;SDS011;10479;53.524;9.846;2024-01-16T03:34:50;33.90;;;12.95;;
20639;SDS011;10479;53.524;9.846;2024-01-16T03:37:15;35.25;;;13.20;;
20639;SDS011;10479;53.524;9.846;2024-01-16T03:39:41;34.25;;;12.93;;
20639;SDS011;10479;53.524;9.846;2024-01-16T03:42:07;31.25;;;12.98;;
20639;SDS011;10479;53.524;9.846;2024-01-16T03:44:32;31.67;;;11.88;;
20639;SDS011;10479;53.524;9.846;2024-01-16T03:46:57;32.15;;;12.63;;
20639;SDS011;10479;53.524;9.846;2024-01-16T03:49:23;34.10;;;13.40;;
20639;SDS011;10479;53.524;9.846;2024-01-16T03:51:49;35.70;;;12.93;;
20639;SDS011;10479;53.524;9.846;2024-01-16T03:54:14;28.90;;;13.02;;
20639;SDS011;10479;53.524;9.846;2024-01-16T03:56:40;32.38;;;13.20;;
20639;SDS011;10479;53.524;9.846;2024-01-16T03:59:05;31.83;;;12.60;;
20639;SDS011;10479;53.524;9.846;2024-01-16T04:01:31;37.90;;;12.95;;
20639;SDS011;10479;53.524;9.846;2024-01-16T04:03:57;32.22;;;13.55;;
20639;SDS011;10479;53.524;9.846;2024-01-16T04:06:23;28.35;;;11.23;;
20639;SDS011;10479;53.524;9.846;2024-01-16T04:08:48;31.48;;;12.10;;
20639;SDS011;10479;53.524;9.846;2024-01-16T04:11:14;26.80;;;12.02;;
20639;SDS011;10479;53.524;9.846;2024-01-16T04:13:40;27.15;;;10.80;;
20639;SDS011;10479;53.524;9.846;2024-01-16T04:16:06;26.55;;;10.48;;
20639;SDS011;10479;53.524;9.846;2024-01-16T04:18:38;25.77;;;10.35;;
20639;SDS011;10479;53.524;9.846;2024-01-16T04:21:05;26.90;;;10.30;;
20639;SDS011;10479;53.524;9.846;2024-01-16T04:23:31;24.13;;;9.82;;
20639;SDS011;10479;53.524;9.846;2024-01-16T04:25:57;24.50;;;9.32;;
20639;SDS011;10479;53.524;9.846;2024-01-16T04:28:23;22.75;;;9.05;;
20639;SDS011;10479;53.524;9.846;2024-01-16T04:30:48;22.55;;;7.78;;
20639;SDS011;10479;53.524;9.846;2024-01-16T04:33:14;25.65;;;8.35;;
20639;SDS011;10479;53.524;9.846;2024-01-16T04:35:39;20.20;;;7.85;;
20639;SDS011;10479;53.524;9.846;2024-01-16T04:38:05;20.98;;;8.02;;
20639;SDS011;10479;53.524;9.846;2024-01-16T04:40:30;24.48;;;7.47;;
20639;SDS011;10479;53.524;9.846;2024-01-16T04:42:56;23.13;;;7.82;;
20639;SDS011;10479;53.524;9.846;2024-01-16T04:45:21;21.13;;;7.43;;
20639;SDS011;10479;53.524;9.846;2024-01-16T04:47:46;20.75;;;8.27;;
20639;SDS011;10479;53.524;9.846;2024-01-16T04:50:12;18.75;;;7.30;;
20639;SDS011;10479;53.524;9.846;2024-01-16T04:52:37;18.70;;;7.03;;
20639;SDS011;10479;53.524;9.846;2024-01-16T04:55:03;16.52;;;6.22;;
20639;SDS011;10479;53.524;9.846;2024-01-16T04:57:29;17.13;;;6.53;;
20639;SDS011;10479;53.524;9.846;2024-01-16T04:59:54;16.02;;;7.10;;
20639;SDS011;10479;53.524;9.846;2024-01-16T05:02:20;18.92;;;6.18;;
20639;SDS011;10479;53.524;9.846;2024-01-16T05:04:45;18.25;;;6.97;;
20639;SDS011;10479;53.524;9.846;2024-01-16T05:07:14;17.45;;;6.32;;
20639;SDS011;10479;53.524;9.846;2024-01-16T05:09:40;13.65;;;5.20;;
20639;SDS011;10479;53.524;9.846;2024-01-16T05:12:05;12.70;;;4.70;;
20639;SDS011;10479;53.524;9.846;2024-01-16T05:14:31;12.98;;;3.80;;
20639;SDS011;10479;53.524;9.846;2024-01-16T05:16:57;10.20;;;3.53;;
20639;SDS011;10479;53.524;9.846;2024-01-16T05:19:22;10.00;;;3.70;;
20639;SDS011;10479;53.524;9.846;2024-01-16T05:21:47;11.05;;;4.00;;
20639;SDS011;10479;53.524;9.846;2024-01-16T05:24:13;8.05;;;3.08;;
20639;SDS011;10479;53.524;9.846;2024-01-16T05:26:38;7.78;;;2.83;;
20639;SDS011;10479;53.524;9.846;2024-01-16T05:29:04;5.97;;;2.42;;
20639;SDS011;10479;53.524;9.846;2024-01-16T05:31:30;6.75;;;2.67;;
20639;SDS011;10479;53.524;9.846;2024-01-16T05:33:55;5.75;;;2.10;;
20639;SDS011;10479;53.524;9.846;2024-01-16T05:36:21;7.65;;;1.70;;
20639;SDS011;10479;53.524;9.846;2024-01-16T05:38:46;9.15;;;2.22;;
20639;SDS011;10479;53.524;9.846;2024-01-16T05:41:12;7.57;;;1.90;;
20639;SDS011;10479;53.524;9.846;2024-01-16T05:43:38;7.20;;;1.98;;
20639;SDS011;10479;53.524;9.846;2024-01-16T05:46:03;6.32;;;1.70;;
20639;SDS011;10479;53.524;9.846;2024-01-16T05:48:29;7.50;;;2.10;;
20639;SDS011;10479;53.524;9.846;2024-01-16T05:50:54;5.70;;;1.95;;
20639;SDS011;10479;53.524;9.846;2024-01-16T05:53:20;10.93;;;2.88;;
20639;SDS011;10479;53.524;9.846;2024-01-16T05:55:45;11.40;;;2.50;;
20639;SDS011;10479;53.524;9.846;2024-01-16T05:58:10;12.80;;;2.20;;
20639;SDS011;10479;53.524;9.846;2024-01-16T06:00:36;6.82;;;2.45;;
20639;SDS011;10479;53.524;9.846;2024-01-16T06:03:03;7.15;;;2.83;;
20639;SDS011;10479;53.524;9.846;2024-01-16T06:05:28;9.65;;;2.58;;
20639;SDS011;10479;53.524;9.846;2024-01-16T06:07:54;9.93;;;2.40;;
20639;SDS011;10479;53.524;9.846;2024-01-16T06:10:19;11.40;;;2.22;;
20639;SDS011;10479;53.524;9.846;2024-01-16T06:12:45;5.85;;;2.10;;
20639;SDS011;10479;53.524;9.846;2024-01-16T06:15:10;8.38;;;3.00;;
20639;SDS011;10479;53.524;9.846;2024-01-16T06:17:38;8.45;;;2.55;;
20639;SDS011;10479;53.524;9.846;2024-01-16T06:20:04;12.70;;;2.83;;
20639;SDS011;10479;53.524;9.846;2024-01-16T06:22:31;10.32;;;3.28;;
20639;SDS011;10479;53.524;9.846;2024-01-16T06:24:57;10.52;;;2.63;;
20639;SDS011;10479;53.524;9.846;2024-01-16T06:27:22;7.60;;;2.63;;
20639;SDS011;10479;53.524;9.846;2024-01-16T06:29:48;10.63;;;3.00;;
20639;SDS011;10479;53.524;9.846;2024-01-16T06:32:13;10.07;;;2.65;;
20639;SDS011;10479;53.524;9.846;2024-01-16T06:34:39;8.07;;;2.95;;
20639;SDS011;10479;53.524;9.846;2024-01-16T06:37:04;14.65;;;3.47;;
20639;SDS011;10479;53.524;9.846;2024-01-16T06:39:30;14.73;;;3.58;;
20639;SDS011;10479;53.524;9.846;2024-01-16T06:41:56;12.75;;;3.22;;
20639;SDS011;10479;53.524;9.846;2024-01-16T06:44:21;11.70;;;3.05;;
20639;SDS011;10479;53.524;9.846;2024-01-16T06:46:47;11.77;;;3.15;;
20639;SDS011;10479;53.524;9.846;2024-01-16T06:49:12;8.65;;;3.10;;
20639;SDS011;10479;53.524;9.846;2024-01-16T06:51:38;14.40;;;3.28;;
20639;SDS011;10479;53.524;9.846;2024-01-16T06:54:03;13.55;;;3.50;;
20639;SDS011;10479;53.524;9.846;2024-01-16T06:56:29;13.73;;;3.60;;
20639;SDS011;10479;53.524;9.846;2024-01-16T06:58:54;11.32;;;3.28;;
20639;SDS011;10479;53.524;9.846;2024-01-16T07:01:20;12.02;;;3.28;;
20639;SDS011;10479;53.524;9.846;2024-01-16T07:03:46;13.10;;;3.63;;
20639;SDS011;10479;53.524;9.846;2024-01-16T07:06:11;16.30;;;3.78;;
20639;SDS011;10479;53.524;9.846;2024-01-16T07:08:37;16.38;;;3.40;;
20639;SDS011;10479;53.524;9.846;2024-01-16T07:11:03;13.68;;;3.38;;
20639;SDS011;10479;53.524;9.846;2024-01-16T07:13:32;16.08;;;3.60;;
20639;SDS011;10479;53.524;9.846;2024-01-16T07:15:58;14.60;;;3.95;;
20639;SDS011;10479;53.524;9.846;2024-01-16T07:18:24;15.05;;;4.40;;
20639;SDS011;10479;53.524;9.846;2024-01-16T07:20:49;16.40;;;3.67;;
20639;SDS011;10479;53.524;9.846;2024-01-16T07:23:14;15.30;;;3.72;;
20639;SDS011;10479;53.524;9.846;2024-01-16T07:25:40;19.77;;;4.20;;
20639;SDS011;10479;53.524;9.846;2024-01-16T07:28:06;16.63;;;4.45;;
20639;SDS011;10479;53.524;9.846;2024-01-16T07:30:31;19.65;;;4.28;;
20639;SDS011;10479;53.524;9.846;2024-01-16T07:32:57;17.85;;;4.45;;
20639;SDS011;10479;53.524;9.846;2024-01-16T07:35:22;15.27;;;4.97;;
20639;SDS011;10479;53.524;9.846;2024-01-16T07:37:47;11.82;;;4.40;;
20639;SDS011;10479;53.524;9.846;2024-01-16T07:40:13;18.30;;;4.63;;
20639;SDS011;10479;53.524;9.846;2024-01-16T07:42:39;15.68;;;4.78;;
20639;SDS011;10479;53.524;9.846;2024-01-16T07:45:05;15.00;;;5.00;;
20639;SDS011;10479;53.524;9.846;2024-01-16T07:47:31;17.65;;;5.85;;
20639;SDS011;10479;53.524;9.846;2024-01-16T07:49:57;16.80;;;5.90;;
20639;SDS011;10479;53.524;9.846;2024-01-16T07:52:23;16.70;;;5.93;;
20639;SDS011;10479;53.524;9.846;2024-01-16T07:54:48;13.57;;;5.10;;
20639;SDS011;10479;53.524;9.846;2024-01-16T07:57:13;18.00;;;5.38;;
20639;SDS011;10479;53.524;9.846;2024-01-16T07:59:39;15.77;;;5.00;;
20639;SDS011;10479;53.524;9.846;2024-01-16T08:02:06;12.85;;;4.85;;
20639;SDS011;10479;53.524;9.846;2024-01-16T08:04:31;24.80;;;5.82;;
20639;SDS011;10479;53.524;9.846;2024-01-16T08:06:57;16.58;;;6.18;;
20639;SDS011;10479;53.524;9.846;2024-01-16T08:09:22;15.30;;;5.22;;
20639;SDS011;10479;53.524;9.846;2024-01-16T08:11:48;16.10;;;5.88;;
20639;SDS011;10479;53.524;9.846;2024-01-16T08:14:14;21.42;;;5.85;;
20639;SDS011;10479;53.524;9.846;2024-01-16T08:16:39;17.77;;;5.60;;
20639;SDS011;10479;53.524;9.846;2024-01-16T08:19:04;15.93;;;5.47;;
20639;SDS011;10479;53.524;9.846;2024-01-16T08:21:30;18.08;;;6.90;;
20639;SDS011;10479;53.524;9.846;2024-01-16T08:23:55;17.17;;;5.68;;
20639;SDS011;10479;53.524;9.846;2024-01-16T08:26:21;19.42;;;5.95;;
20639;SDS011;10479;53.524;9.846;2024-01-16T08:28:46;16.58;;;6.03;;
20639;SDS011;10479;53.524;9.846;2024-01-16T08:31:12;16.02;;;5.60;;
20639;SDS011;10479;53.524;9.846;2024-01-16T08:33:37;16.52;;;5.57;;
20639;SDS011;10479;53.524;9.846;2024-01-16T08:36:03;16.40;;;5.28;;
20639;SDS011;10479;53.524;9.846;2024-01-16T08:38:48;15.32;;;4.93;;
20639;SDS011;10479;53.524;9.846;2024-01-16T08:41:33;15.75;;;5.13;;
20639;SDS011;10479;53.524;9.846;2024-01-16T08:44:19;16.05;;;4.97;;
20639;SDS011;10479;53.524;9.846;2024-01-16T08:47:05;21.60;;;5.30;;
20639;SDS011;10479;53.524;9.846;2024-01-16T08:49:51;23.08;;;6.20;;
20639;SDS011;10479;53.524;9.846;2024-01-16T08:52:37;21.05;;;5.88;;
20639;SDS011;10479;53.524;9.846;2024-01-16T08:55:23;12.57;;;5.65;;
20639;SDS011;10479;53.524;9.846;2024-01-16T08:58:09;18.27;;;5.20;;
20639;SDS011;10479;53.524;9.846;2024-01-16T09:00:40;17.58;;;5.22;;
20639;SDS011;10479;53.524;9.846;2024-01-16T09:03:05;14.30;;;5.40;;
20639;SDS011;10479;53.524;9.846;2024-01-16T09:05:31;15.45;;;5.28;;
20639;SDS011;10479;53.524;9.846;2024-01-16T09:07:56;14.98;;;5.05;;
20639;SDS011;10479;53.524;9.846;2024-01-16T09:10:21;12.40;;;4.45;;
20639;SDS011;10479;53.524;9.846;2024-01-16T09:12:47;14.73;;;4.60;;
20639;SDS011;10479;53.524;9.846;2024-01-16T09:15:13;11.73;;;4.50;;
20639;SDS011;10479;53.524;9.846;2024-01-16T09:17:39;14.63;;;4.95;;
20639;SDS011;10479;53.524;9.846;2024-01-16T09:20:05;11.10;;;4.10;;
20639;SDS011;10479;53.524;9.846;2024-01-16T09:22:32;12.45;;;4.10;;
20639;SDS011;10479;53.524;9.846;2024-01-16T09:24:57;14.82;;;3.60;;
20639;SDS011;10479;53.524;9.846;2024-01-16T09:27:22;9.30;;;3.70;;
20639;SDS011;10479;53.524;9.846;2024-01-16T09:29:48;13.25;;;3.55;;
20639;SDS011;10479;53.524;9.846;2024-01-16T09:32:14;12.95;;;4.05;;
20639;SDS011;10479;53.524;9.846;2024-01-16T09:34:39;11.10;;;3.17;;
20639;SDS011;10479;53.524;9.846;2024-01-16T09:37:05;11.05;;;2.85;;
20639;SDS011;10479;53.524;9.846;2024-01-16T09:39:30;10.82;;;2.13;;
20639;SDS011;10479;53.524;9.846;2024-01-16T09:41:57;10.85;;;2.78;;
20639;SDS011;10479;53.524;9.846;2024-01-16T09:44:26;11.55;;;2.40;;
20639;SDS011;10479;53.524;9.846;2024-01-16T09:46:52;12.50;;;2.28;;
20639;SDS011;10479;53.524;9.846;2024-01-16T09:49:18;9.43;;;1.85;;
20639;SDS011;10479;53.524;9.846;2024-01-16T09:51:44;5.70;;;1.83;;
20639;SDS011;10479;53.524;9.846;2024-01-16T09:54:09;12.35;;;2.30;;
20639;SDS011;10479;53.524;9.846;2024-01-16T09:56:35;7.75;;;2.10;;
20639;SDS011;10479;53.524;9.846;2024-01-16T09:59:05;6.82;;;2.10;;
20639;SDS011;10479;53.524;9.846;2024-01-16T10:01:32;7.80;;;2.00;;
20639;SDS011;10479;53.524;9.846;2024-01-16T10:03:58;11.73;;;1.95;;
20639;SDS011;10479;53.524;9.846;2024-01-16T10:06:24;10.38;;;2.40;;
20639;SDS011;10479;53.524;9.846;2024-01-16T10:08:52;10.45;;;2.35;;
20639;SDS011;10479;53.524;9.846;2024-01-16T10:11:18;9.02;;;2.03;;
20639;SDS011;10479;53.524;9.846;2024-01-16T10:13:44;5.95;;;1.50;;
20639;SDS011;10479;53.524;9.846;2024-01-16T10:16:09;13.70;;;2.03;;
20639;SDS011;10479;53.524;9.846;2024-01-16T10:18:35;8.18;;;2.13;;
20639;SDS011;10479;53.524;9.846;2024-01-16T10:21:02;9.82;;;2.17;;
20639;SDS011;10479;53.524;9.846;2024-01-16T10:23:29;9.32;;;1.73;;
20639;SDS011;10479;53.524;9.846;2024-01-16T10:26:08;16.05;;;2.15;;
20639;SDS011;10479;53.524;9.846;2024-01-16T10:28:35;7.38;;;2.00;;
20639;SDS011;10479;53.524;9.846;2024-01-16T10:31:04;8.35;;;1.55;;
20639;SDS011;10479;53.524;9.846;2024-01-16T10:33:31;9.50;;;1.90;;
20639;SDS011;10479;53.524;9.846;2024-01-16T10:36:09;9.70;;;2.00;;
20639;SDS011;10479;53.524;9.846;2024-01-16T10:38:39;9.35;;;2.40;;
20639;SDS011;10479;53.524;9.846;2024-01-16T10:41:05;7.78;;;2.10;;
20639;SDS011;10479;53.524;9.846;2024-01-16T10:46:13;8.55;;;1.98;;
20639;SDS011;10479;53.524;9.846;2024-01-16T10:48:41;5.60;;;2.03;;
20639;SDS011;10479;53.524;9.846;2024-01-16T10:51:09;8.15;;;1.60;;
20639;SDS011;10479;53.524;9.846;2024-01-16T10:53:44;4.55;;;1.60;;
20639;SDS011;10479;53.524;9.846;2024-01-16T10:56:12;15.32;;;2.30;;
20639;SDS011;10479;53.524;9.846;2024-01-16T10:58:41;11.02;;;1.63;;
20639;SDS011;10479;53.524;9.846;2024-01-16T11:01:10;6.53;;;1.90;;
20639;SDS011;10479;53.524;9.846;2024-01-16T11:03:49;10.07;;;2.03;;
20639;SDS011;10479;53.524;9.846;2024-01-16T11:06:15;8.07;;;1.85;;
20639;SDS011;10479;53.524;9.846;2024-01-16T11:08:42;10.13;;;1.88;;
20639;SDS011;10479;53.524;9.846;2024-01-16T11:11:10;7.22;;;1.70;;
20639;SDS011;10479;53.524;9.846;2024-01-16T11:13:36;8.50;;;1.80;;
20639;SDS011;10479;53.524;9.846;2024-01-16T11:16:02;9.60;;;1.95;;
20639;SDS011;10479;53.524;9.846;2024-01-16T11:18:30;10.23;;;1.88;;
20639;SDS011;10479;53.524;9.846;2024-01-16T11:20:56;7.55;;;1.42;;
20639;SDS011;10479;53.524;9.846;2024-01-16T11:23:22;13.27;;;2.20;;
20639;SDS011;10479;53.524;9.846;2024-01-16T11:25:48;13.52;;;1.60;;
20639;SDS011;10479;53.524;9.846;2024-01-16T11:28:14;11.25;;;1.63;;
20639;SDS011;10479;53.524;9.846;2024-01-16T11:30:41;10.63;;;2.05;;
20639;SDS011;10479;53.524;9.846;2024-01-16T11:35:56;9.10;;;1.73;;
20639;SDS011;10479;53.524;9.846;2024-01-16T11:38:21;8.70;;;1.73;;
20639;SDS011;10479;53.524;9.846;2024-01-16T11:40:48;11.35;;;2.00;;
20639;SDS011;10479;53.524;9.846;2024-01-16T11:48:26;8.65;;;1.80;;
20639;SDS011;10479;53.524;9.846;2024-01-16T11:50:52;10.45;;;1.92;;
20639;SDS011;10479;53.524;9.846;2024-01-16T12:02:26;7.93;;;2.08;;
20639;SDS011;10479;53.524;9.846;2024-01-16T12:04:54;8.07;;;1.90;;
20639;SDS011;10479;53.524;9.846;2024-01-16T12:07:28;8.77;;;1.73;;
20639;SDS011;10479;53.524;9.846;2024-01-16T12:12:05;9.45;;;1.85;;
20639;SDS011;10479;53.524;9.846;2024-01-16T12:16:36;9.45;;;1.90;;
20639;SDS011;10479;53.524;9.846;2024-01-16T12:19:08;6.57;;;2.20;;
20639;SDS011;10479;53.524;9.846;2024-01-16T12:21:35;21.47;;;2.90;;
20639;SDS011;10479;53.524;9.846;2024-01-16T12:24:03;7.30;;;1.70;;
20639;SDS011;10479;53.524;9.846;2024-01-16T12:26:29;7.50;;;1.85;;
20639;SDS011;10479;53.524;9.846;2024-01-16T12:28:54;17.08;;;1.90;;
20639;SDS011;10479;53.524;9.846;2024-01-16T12:31:20;6.80;;;1.83;;
20639;SDS011;10479;53.524;9.846;2024-01-16T12:35:47;7.47;;;1.77;;
20639;SDS011;10479;53.524;9.846;2024-01-16T12:38:13;10.90;;;2.00;;
20639;SDS011;10479;53.524;9.846;2024-01-16T12:43:16;12.93;;;2.20;;
20639;SDS011;10479;53.524;9.846;2024-01-16T12:45:44;11.35;;;2.33;;
20639;SDS011;10479;53.524;9.846;2024-01-16T12:48:10;13.40;;;1.90;;
20639;SDS011;10479;53.524;9.846;2024-01-16T12:50:36;7.88;;;2.03;;
20639;SDS011;10479;53.524;9.846;2024-01-16T12:53:07;7.90;;;1.80;;
20639;SDS011;10479;53.524;9.846;2024-01-16T12:55:37;9.95;;;1.80;;
20639;SDS011;10479;53.524;9.846;2024-01-16T12:58:15;8.73;;;1.90;;
20639;SDS011;10479;53.524;9.846;2024-01-16T13:00:45;11.52;;;2.17;;
20639;SDS011;10479;53.524;9.846;2024-01-16T13:03:18;9.02;;;1.67;;
20639;SDS011;10479;53.524;9.846;2024-01-16T13:05:44;8.02;;;2.10;;
20639;SDS011;10479;53.524;9.846;2024-01-16T13:08:18;6.40;;;1.85;;
20639;SDS011;10479;53.524;9.846;2024-01-16T13:10:44;8.27;;;2.30;;
20639;SDS011;10479;53.524;9.846;2024-01-16T13:13:11;8.45;;;2.05;;
20639;SDS011;10479;53.524;9.846;2024-01-16T13:15:47;11.27;;;2.53;;
20639;SDS011;10479;53.524;9.846;2024-01-16T13:18:17;10.95;;;2.15;;
20639;SDS011;10479;53.524;9.846;2024-01-16T13:20:44;8.88;;;2.03;;
20639;SDS011;10479;53.524;9.846;2024-01-16T13:23:09;11.35;;;2.65;;
20639;SDS011;10479;53.524;9.846;2024-01-16T13:25:35;6.32;;;2.58;;
20639;SDS011;10479;53.524;9.846;2024-01-16T13:28:01;7.05;;;2.50;;
20639;SDS011;10479;53.524;9.846;2024-01-16T13:30:26;11.85;;;3.03;;
20639;SDS011;10479;53.524;9.846;2024-01-16T13:32:52;12.75;;;3.40;;
20639;SDS011;10479;53.524;9.846;2024-01-16T13:35:17;13.55;;;2.80;;
20639;SDS011;10479;53.524;9.846;2024-01-16T13:37:43;12.15;;;3.05;;
20639;SDS011;10479;53.524;9.846;2024-01-16T13:40:08;12.00;;;3.33;;
20639;SDS011;10479;53.524;9.846;2024-01-16T13:42:36;9.68;;;3.58;;
20639;SDS011;10479;53.524;9.846;2024-01-16T13:45:02;13.25;;;4.35;;
20639;SDS011;10479;53.524;9.846;2024-01-16T13:47:29;17.58;;;4.63;;
20639;SDS011;10479;53.524;9.846;2024-01-16T13:49:55;10.65;;;4.68;;
20639;SDS011;10479;53.524;9.846;2024-01-16T13:52:20;15.70;;;5.63;;
20639;SDS011;10479;53.524;9.846;2024-01-16T13:54:46;15.65;;;6.55;;
20639;SDS011;10479;53.524;9.846;2024-01-16T13:57:11;16.15;;;7.15;;
20639;SDS011;10479;53.524;9.846;2024-01-16T13:59:37;21.30;;;7.43;;
20639;SDS011;10479;53.524;9.846;2024-01-16T14:02:03;15.52;;;6.57;;
20639;SDS011;10479;53.524;9.846;2024-01-16T14:04:30;16.40;;;6.45;;
20639;SDS011;10479;53.524;9.846;2024-01-16T14:06:55;18.00;;;6.03;;
20639;SDS011;10479;53.524;9.846;2024-01-16T14:09:20;12.80;;;5.45;;
20639;SDS011;10479;53.524;9.846;2024-01-16T14:11:46;18.45;;;6.47;;
20639;SDS011;10479;53.524;9.846;2024-01-16T14:14:11;15.75;;;5.72;;
20639;SDS011;10479;53.524;9.846;2024-01-16T14:16:38;12.25;;;4.18;;
20639;SDS011;10479;53.524;9.846;2024-01-16T14:19:03;18.48;;;5.90;;
20639;SDS011;10479;53.524;9.846;2024-01-16T14:21:29;13.05;;;4.47;;
20639;SDS011;10479;53.524;9.846;2024-01-16T14:23:55;12.70;;;4.35;;
20639;SDS011;10479;53.524;9.846;2024-01-16T14:26:20;19.17;;;4.43;;
20639;SDS011;10479;53.524;9.846;2024-01-16T14:28:46;12.45;;;4.40;;
20639;SDS011;10479;53.524;9.846;2024-01-16T14:31:11;15.27;;;4.70;;
20639;SDS011;10479;53.524;9.846;2024-01-16T14:33:37;14.07;;;4.50;;
20639;SDS011;10479;53.524;9.846;2024-01-16T14:36:02;11.60;;;4.47;;
20639;SDS011;10479;53.524;9.846;2024-01-16T14:38:29;13.93;;;4.88;;
20639;SDS011;10479;53.524;9.846;2024-01-16T14:40:54;14.43;;;5.32;;
20639;SDS011;10479;53.524;9.846;2024-01-16T14:43:21;17.25;;;5.32;;
20639;SDS011;10479;53.524;9.846;2024-01-16T14:45:46;16.45;;;4.93;;
20639;SDS011;10479;53.524;9.846;2024-01-16T14:48:11;15.93;;;4.80;;
20639;SDS011;10479;53.524;9.846;2024-01-16T14:50:37;21.08;;;5.15;;
20639;SDS011;10479;53.524;9.846;2024-01-16T14:53:02;17.27;;;5.00;;
20639;SDS011;10479;53.524;9.846;2024-01-16T14:55:30;14.55;;;4.80;;
20639;SDS011;10479;53.524;9.846;2024-01-16T14:57:56;12.02;;;4.80;;
20639;SDS011;10479;53.524;9.846;2024-01-16T15:00:25;13.00;;;4.78;;